Time;durP1;ratioP1;P1;durP2;ratioP2;P2;SDS_P1;SDS_P2;PMS_P1;PMS_P2;Temp;Humidity;BMP_temperature;BMP_pressure;BME280_temperature;BME280_humidity;BME280_pressure;Samples;Min_cycle;Max_cycle;Signal;HPM_P1;HPM_P2
2022/02/14 00:01:57;;;;;;;7.77;2.63;;;6.00;90.70;;;;;;4178584;28;20476;-79
2022/02/14 00:03:59;;;;;;;5.33;2.30;;;5.30;90.80;;;;;;4182928;28;20464;-79
2022/02/14 00:06:00;;;;;;;4.20;2.17;;;5.30;88.60;;;;;;4183359;28;20965;-80
2022/02/14 00:08:02;;;;;;;6.73;2.47;;;5.30;89.60;;;;;;4180637;28;20514;-81
2022/02/14 00:10:05;;;;;;;6.13;2.47;;;5.30;88.50;;;;;;4181256;28;20468;-80
2022/02/14 00:12:09;;;;;;;3.77;2.30;;;5.30;87.00;;;;;;4183058;28;20492;-79
2022/02/14 00:14:10;;;;;;;6.77;3.00;;;5.30;86.70;;;;;;4183350;28;20445;-80
2022/02/14 00:16:13;;;;;;;5.30;2.47;;;5.30;86.00;;;;;;4179758;28;20477;-80
2022/02/14 00:18:15;;;;;;;5.67;2.70;;;5.30;85.10;;;;;;4181464;28;20463;-79
2022/02/14 00:20:17;;;;;;;3.70;2.10;;;5.30;85.10;;;;;;4179854;28;20468;-79
2022/02/14 00:22:21;;;;;;;5.00;2.30;;;5.30;85.20;;;;;;4180057;28;21157;-79
2022/02/14 00:24:23;;;;;;;5.33;2.20;;;5.30;86.20;;;;;;4181122;28;20469;-80
2022/02/14 00:26:26;;;;;;;5.80;2.23;;;5.30;86.50;;;;;;4179607;28;20961;-79
2022/02/14 00:28:29;;;;;;;4.37;2.27;;;5.50;84.50;;;;;;4181151;28;20461;-79
2022/02/14 00:30:31;;;;;;;6.13;2.27;;;5.20;85.80;;;;;;4178887;28;20464;-79
2022/02/14 00:32:34;;;;;;;3.07;1.83;;;5.20;86.00;;;;;;4180620;28;20538;-80
2022/02/14 00:34:35;;;;;;;5.23;2.20;;;5.20;86.80;;;;;;4180417;28;20544;-79
2022/02/14 00:36:37;;;;;;;4.53;2.47;;;5.20;87.30;;;;;;4182614;28;20475;-79
2022/02/14 00:38:39;;;;;;;6.97;2.30;;;5.20;89.00;;;;;;4179562;28;21260;-80
2022/02/14 00:40:44;;;;;;;4.80;2.30;;;5.20;87.70;;;;;;4181072;28;20519;-79
2022/02/14 00:42:46;;;;;;;5.50;2.43;;;5.20;88.50;;;;;;4179966;28;20489;-78
2022/02/14 00:44:49;;;;;;;4.33;1.97;;;5.10;87.50;;;;;;4179872;28;20933;-79
2022/02/14 00:46:51;;;;;;;4.87;2.10;;;5.90;87.60;;;;;;4177259;28;20710;-79
2022/02/14 00:48:53;;;;;;;4.80;2.27;;;5.10;88.40;;;;;;4180866;28;20531;-79
2022/02/14 00:50:54;;;;;;;3.23;1.90;;;5.10;87.90;;;;;;4181837;28;20471;-78
2022/02/14 00:52:56;;;;;;;4.23;2.13;;;5.10;89.40;;;;;;4181644;28;20999;-79
2022/02/14 00:54:58;;;;;;;3.60;1.97;;;5.00;90.00;;;;;;4182433;28;20465;-79
2022/02/14 00:57:00;;;;;;;5.40;2.37;;;5.10;88.30;;;;;;4178931;28;20508;-79
2022/02/14 00:59:02;;;;;;;3.17;1.93;;;5.10;89.70;;;;;;4182428;28;20964;-78
2022/02/14 01:01:05;;;;;;;5.73;1.93;;;5.00;89.40;;;;;;4180708;28;20969;-78
2022/02/14 01:03:07;;;;;;;6.50;2.10;;;5.00;90.20;;;;;;4181301;28;21201;-78
2022/02/14 01:05:10;;;;;;;4.13;1.80;;;5.00;90.40;;;;;;4181186;28;20464;-78
2022/02/14 01:07:12;;;;;;;5.20;2.17;;;5.00;90.70;;;;;;4181500;28;20892;-81
2022/02/14 01:09:14;;;;;;;3.37;2.00;;;4.90;88.30;;;;;;4180885;28;20473;-78
2022/02/14 01:11:16;;;;;;;3.97;1.97;;;4.90;87.90;;;;;;4178188;28;21063;-78
2022/02/14 01:13:18;;;;;;;5.37;2.13;;;4.90;87.00;;;;;;4181877;28;20468;-82
2022/02/14 01:15:20;;;;;;;3.03;1.87;;;4.90;88.10;;;;;;4182503;28;20513;-78
2022/02/14 01:17:23;;;;;;;6.80;1.93;;;4.90;87.80;;;;;;4177768;28;20492;-78
2022/02/14 01:19:25;;;;;;;6.67;2.20;;;4.90;89.40;;;;;;4183035;28;20444;-78
2022/02/14 01:21:27;;;;;;;5.50;2.13;;;4.90;89.90;;;;;;4179845;28;20471;-78
2022/02/14 01:23:29;;;;;;;3.97;1.77;;;4.90;89.50;;;;;;4178507;28;20445;-78
2022/02/14 01:25:31;;;;;;;4.80;2.13;;;4.90;89.40;;;;;;4178854;28;20461;-81
2022/02/14 01:27:32;;;;;;;4.23;1.80;;;4.90;87.00;;;;;;4180754;28;20492;-78
2022/02/14 01:29:35;;;;;;;3.57;1.83;;;4.90;87.00;;;;;;4179750;28;20657;-80
2022/02/14 01:31:37;;;;;;;4.40;2.07;;;4.90;85.90;;;;;;4178229;28;20497;-78
2022/02/14 01:33:40;;;;;;;3.23;1.83;;;4.90;87.60;;;;;;4174537;28;20468;-79
2022/02/14 01:35:42;;;;;;;5.87;2.03;;;4.90;87.40;;;;;;4176087;28;20479;-78
2022/02/14 01:37:44;;;;;;;7.00;1.97;;;4.90;86.60;;;;;;4174794;28;20461;-78
2022/02/14 01:39:46;;;;;;;6.80;2.07;;;4.90;87.00;;;;;;4177970;28;20472;-78
2022/02/14 01:41:48;;;;;;;4.07;1.90;;;4.90;86.80;;;;;;4176610;28;20528;-78
2022/02/14 01:43:50;;;;;;;5.73;2.27;;;4.90;87.00;;;;;;4178142;28;20922;-78
2022/02/14 01:45:52;;;;;;;3.90;2.13;;;4.90;86.40;;;;;;4176353;28;20522;-78
2022/02/14 01:47:53;;;;;;;3.93;1.87;;;4.80;86.50;;;;;;4174288;28;20538;-78
2022/02/14 01:49:58;;;;;;;3.47;1.70;;;4.90;86.80;;;;;;4177020;28;20457;-79
2022/02/14 01:52:00;;;;;;;6.50;2.47;;;4.90;88.20;;;;;;4173122;28;20489;-78
2022/02/14 01:54:02;;;;;;;4.60;1.80;;;4.80;87.70;;;;;;4176812;28;20464;-80
2022/02/14 01:56:05;;;;;;;3.57;1.73;;;4.80;86.30;;;;;;4174364;28;20515;-77
2022/02/14 01:58:06;;;;;;;3.67;1.97;;;4.80;86.60;;;;;;4175923;28;20836;-79
2022/02/14 02:00:11;;;;;;;5.30;2.00;;;4.80;87.00;;;;;;4175922;28;20446;-78
2022/02/14 02:02:13;;;;;;;7.30;1.93;;;4.80;86.60;;;;;;4174917;28;20472;-79
2022/02/14 02:04:15;;;;;;;4.57;1.90;;;4.80;83.30;;;;;;4175631;28;20513;-78
2022/02/14 02:06:18;;;;;;;3.13;1.60;;;4.90;82.30;;;;;;4176559;28;20838;-80
2022/02/14 02:08:21;;;;;;;4.03;2.13;;;4.90;81.30;;;;;;4181737;28;20855;-81
2022/02/14 02:10:24;;;;;;;4.37;1.90;;;4.90;80.60;;;;;;4182660;28;20451;-81
2022/02/14 02:12:26;;;;;;;3.33;1.80;;;4.90;81.50;;;;;;4176173;28;20880;-78
2022/02/14 02:14:27;;;;;;;4.93;1.90;;;4.90;82.10;;;;;;4177493;28;20547;-78
2022/02/14 02:16:29;;;;;;;6.50;1.90;;;4.90;81.80;;;;;;4178358;28;20465;-78
2022/02/14 02:18:31;;;;;;;5.80;1.90;;;4.90;83.10;;;;;;4178743;28;20862;-78
2022/02/14 02:20:33;;;;;;;3.50;2.00;;;4.90;80.20;;;;;;4178540;28;20450;-79
2022/02/14 02:22:36;;;;;;;4.03;2.00;;;4.90;81.20;;;;;;4240487;22;20997;-72
2022/02/14 02:24:50;;;;;;;6.00;1.93;;;4.90;80.50;;;;;;4231792;27;20466;-74
2022/02/14 02:27:00;;;;;;;4.10;2.17;;;4.90;81.10;;;;;;4247066;27;20456;-74
2022/02/14 02:29:01;;;;;;;4.43;1.83;;;4.90;80.20;;;;;;4243059;27;20909;-71
2022/02/14 02:31:03;;;;;;;5.73;1.90;;;4.90;81.00;;;;;;4236720;27;20549;-71
2022/02/14 02:33:05;;;;;;;5.53;2.07;;;4.90;81.10;;;;;;4238385;28;20489;-72
2022/02/14 02:35:08;;;;;;;6.30;2.17;;;4.90;81.50;;;;;;4245855;28;20465;-72
2022/02/14 02:37:12;;;;;;;5.23;1.87;;;4.90;80.70;;;;;;4244836;27;20521;-74
2022/02/14 02:39:14;;;;;;;6.03;2.07;;;4.90;80.60;;;;;;4232693;28;20946;-72
2022/02/14 02:41:17;;;;;;;5.23;1.90;;;4.90;80.60;;;;;;4247394;28;20810;-71
2022/02/14 02:43:19;;;;;;;4.93;2.00;;;4.90;80.40;;;;;;4242714;27;20489;-73
2022/02/14 02:45:21;;;;;;;5.27;2.07;;;4.90;81.30;;;;;;4237744;28;20507;-72
2022/02/14 02:47:24;;;;;;;7.33;2.00;;;4.90;81.40;;;;;;4239227;28;20974;-73
2022/02/14 02:49:26;;;;;;;4.13;1.77;;;4.80;80.10;;;;;;4245223;28;20457;-72
2022/02/14 02:51:28;;;;;;;6.67;2.40;;;4.80;80.50;;;;;;4241644;28;20449;-71
2022/02/14 02:53:30;;;;;;;3.97;1.93;;;4.90;81.60;;;;;;4245944;27;20497;-71
2022/02/14 02:55:32;;;;;;;4.67;2.10;;;4.80;81.10;;;;;;4249830;27;20454;-74
2022/02/14 02:57:35;;;;;;;4.90;2.00;;;4.80;78.00;;;;;;4248591;27;20465;-72
2022/02/14 02:59:37;;;;;;;3.57;2.00;;;4.90;77.10;;;;;;4232823;27;20442;-73
2022/02/14 03:01:40;;;;;;;4.10;1.93;;;4.90;78.40;;;;;;4248449;27;20461;-72
2022/02/14 03:03:42;;;;;;;4.27;1.83;;;4.90;79.20;;;;;;4257473;27;20455;-74
2022/02/14 03:05:43;;;;;;;5.80;2.03;;;4.90;79.60;;;;;;4252979;27;20505;-72
2022/02/14 03:07:45;;;;;;;4.63;2.13;;;4.90;79.10;;;;;;4247653;27;20495;-71
2022/02/14 03:09:47;;;;;;;3.63;2.20;;;4.90;79.10;;;;;;4237732;27;20500;-72
2022/02/14 03:11:49;;;;;;;4.73;2.50;;;4.90;79.40;;;;;;4241368;27;20449;-73
2022/02/14 03:13:53;;;;;;;6.37;2.10;;;4.90;80.00;;;;;;4248737;27;20488;-72
2022/02/14 03:15:55;;;;;;;3.87;1.90;;;4.90;80.00;;;;;;4249562;27;20498;-71
2022/02/14 03:17:58;;;;;;;4.63;2.10;;;4.90;80.40;;;;;;4246373;27;20482;-72
2022/02/14 03:20:00;;;;;;;4.83;2.00;;;4.80;79.60;;;;;;4232868;28;20449;-72
2022/02/14 03:22:03;;;;;;;4.47;2.30;;;4.80;78.60;;;;;;4246181;27;20485;-75
2022/02/14 03:24:05;;;;;;;7.03;2.40;;;4.80;79.00;;;;;;4249123;27;20945;-72
2022/02/14 03:26:08;;;;;;;3.33;1.63;;;4.80;79.90;;;;;;4250814;27;20938;-72
2022/02/14 03:28:09;;;;;;;5.00;2.00;;;4.80;79.90;;;;;;4243373;27;20457;-75
2022/02/14 03:30:13;;;;;;;5.83;2.00;;;4.80;80.70;;;;;;4244998;27;20526;-71
2022/02/14 03:32:15;;;;;;;6.33;1.60;;;4.80;80.20;;;;;;4242745;27;20977;-71
2022/02/14 03:34:16;;;;;;;3.97;2.00;;;4.70;79.40;;;;;;4244179;27;20511;-72
2022/02/14 03:36:21;;;;;;;4.70;2.10;;;4.80;78.20;;;;;;4245490;27;20450;-73
2022/02/14 03:38:23;;;;;;;3.53;1.73;;;4.80;79.00;;;;;;4238703;27;20495;-73
2022/02/14 03:40:25;;;;;;;5.27;1.80;;;4.80;77.90;;;;;;4249094;27;20460;-72
2022/02/14 03:42:26;;;;;;;4.20;2.10;;;4.80;77.60;;;;;;4248667;27;20473;-73
2022/02/14 03:44:28;;;;;;;4.33;2.10;;;4.80;79.00;;;;;;4246753;27;20469;-72
2022/02/14 03:46:31;;;;;;;3.90;1.87;;;4.80;79.90;;;;;;4256043;27;20990;-73
2022/02/14 03:48:33;;;;;;;2.87;1.77;;;4.80;80.10;;;;;;4239212;27;20474;-71
2022/02/14 03:50:35;;;;;;;5.43;2.07;;;4.80;78.40;;;;;;4244324;27;20988;-73
2022/02/14 03:52:37;;;;;;;2.80;1.80;;;4.80;80.20;;;;;;4249214;27;20489;-73
2022/02/14 03:54:38;;;;;;;4.53;2.07;;;4.80;81.90;;;;;;4247234;27;20981;-72
2022/02/14 03:56:40;;;;;;;8.40;2.10;;;4.80;80.20;;;;;;4247732;27;20469;-72
2022/02/14 03:58:42;;;;;;;2.83;1.67;;;4.70;80.00;;;;;;4245865;27;20448;-72
2022/02/14 04:00:44;;;;;;;4.53;2.20;;;4.70;80.80;;;;;;4248975;27;20449;-70
2022/02/14 04:02:48;;;;;;;5.50;2.00;;;4.80;80.60;;;;;;4249134;27;20501;-71
2022/02/14 04:04:50;;;;;;;4.87;2.00;;;4.70;81.20;;;;;;4241531;27;20461;-75
2022/02/14 04:06:51;;;;;;;3.43;1.70;;;4.70;81.50;;;;;;4246147;27;21597;-74
2022/02/14 04:08:53;;;;;;;3.57;2.00;;;4.70;80.80;;;;;;4247739;27;20683;-72
2022/02/14 04:10:57;;;;;;;4.90;2.07;;;4.70;79.90;;;;;;4247805;27;20938;-73
2022/02/14 04:12:59;;;;;;;4.13;1.80;;;4.70;81.50;;;;;;4248931;27;21018;-73
2022/02/14 04:15:00;;;;;;;2.97;1.80;;;4.70;83.30;;;;;;4245047;27;20954;-72
2022/02/14 04:17:02;;;;;;;2.57;1.47;;;4.70;81.90;;;;;;4244897;27;20449;-74
2022/02/14 04:19:05;;;;;;;3.83;1.87;;;4.70;80.90;;;;;;4249037;27;20511;-73
2022/02/14 04:21:08;;;;;;;6.40;2.00;;;4.70;81.40;;;;;;4246938;27;20465;-74
2022/02/14 04:23:09;;;;;;;4.10;2.20;;;4.70;82.00;;;;;;4241485;27;20495;-73
2022/02/14 04:25:13;;;;;;;5.37;1.90;;;4.70;82.00;;;;;;4236224;27;20481;-73
2022/02/14 04:27:15;;;;;;;3.80;1.73;;;4.60;82.00;;;;;;4242316;27;20454;-74
2022/02/14 04:29:17;;;;;;;4.33;1.90;;;4.60;82.60;;;;;;4248930;27;20938;-73
2022/02/14 04:31:19;;;;;;;3.23;1.93;;;4.60;82.90;;;;;;4248082;27;20496;-74
2022/02/14 04:33:20;;;;;;;2.70;1.70;;;4.60;84.50;;;;;;4245087;27;20514;-74
2022/02/14 04:35:23;;;;;;;6.63;2.10;;;4.60;83.50;;;;;;4235112;27;20469;-76
2022/02/14 04:37:25;;;;;;;4.93;2.00;;;4.60;83.80;;;;;;4246602;27;20461;-74
2022/02/14 04:39:27;;;;;;;3.33;1.63;;;4.60;82.30;;;;;;4247373;27;20502;-75
2022/02/14 04:41:29;;;;;;;3.93;1.70;;;4.60;84.10;;;;;;4247679;27;20461;-76
2022/02/14 04:43:30;;;;;;;6.67;2.40;;;4.50;83.80;;;;;;4244782;27;20489;-72
2022/02/14 04:45:32;;;;;;;3.60;1.90;;;4.50;85.50;;;;;;4248570;27;20446;-70
2022/02/14 04:47:34;;;;;;;4.13;1.73;;;4.50;82.30;;;;;;4244634;27;20879;-70
2022/02/14 04:49:36;;;;;;;3.73;2.07;;;4.50;81.70;;;;;;4236304;27;20453;-70
2022/02/14 04:51:39;;;;;;;4.00;1.90;;;4.50;82.30;;;;;;4248685;27;20976;-70
2022/02/14 04:53:40;;;;;;;4.53;1.87;;;4.50;82.60;;;;;;4248166;27;20534;-73
2022/02/14 04:55:42;;;;;;;4.70;2.00;;;4.50;81.10;;;;;;4250858;27;20453;-73
2022/02/14 04:57:44;;;;;;;3.57;2.03;;;4.50;80.70;;;;;;4238760;27;20994;-71
2022/02/14 04:59:46;;;;;;;4.07;2.13;;;4.70;82.00;;;;;;4249364;27;20464;-78
2022/02/14 05:01:48;;;;;;;5.73;2.00;;;4.50;81.00;;;;;;4253495;27;20483;-73
2022/02/14 05:03:50;;;;;;;4.53;1.83;;;4.60;79.60;;;;;;4248719;27;20915;-69
2022/02/14 05:05:52;;;;;;;3.17;1.83;;;4.50;80.20;;;;;;4250206;27;20449;-71
2022/02/14 05:07:55;;;;;;;5.83;1.73;;;4.50;79.20;;;;;;4247467;27;20450;-71
2022/02/14 05:09:56;;;;;;;3.60;1.80;;;4.50;80.10;;;;;;4247277;27;20918;-70
2022/02/14 05:11:59;;;;;;;4.43;1.83;;;4.50;80.70;;;;;;4247962;27;20449;-70
2022/02/14 05:14:01;;;;;;;5.97;1.80;;;4.50;80.40;;;;;;4243407;27;20481;-72
2022/02/14 05:16:03;;;;;;;3.20;1.77;;;4.50;80.40;;;;;;4252705;27;20712;-69
2022/02/14 05:18:05;;;;;;;3.83;2.00;;;4.50;80.50;;;;;;4246240;27;20454;-69
2022/02/14 05:20:08;;;;;;;4.37;2.20;;;4.50;81.10;;;;;;4246871;27;20461;-73
2022/02/14 05:22:10;;;;;;;3.63;1.73;;;4.50;79.30;;;;;;4240753;27;20512;-71
2022/02/14 05:24:13;;;;;;;3.60;1.73;;;4.50;80.90;;;;;;4241698;27;20510;-70
2022/02/14 05:26:15;;;;;;;8.37;2.20;;;4.50;82.50;;;;;;4242510;27;20510;-70
2022/02/14 05:28:16;;;;;;;5.63;2.00;;;4.50;80.60;;;;;;4240877;27;20461;-71
2022/02/14 05:30:18;;;;;;;4.43;2.07;;;4.50;81.80;;;;;;4246193;27;20468;-70
2022/02/14 05:32:20;;;;;;;3.80;1.73;;;4.50;80.00;;;;;;4240971;27;20563;-71
2022/02/14 05:34:22;;;;;;;2.97;1.87;;;4.50;79.80;;;;;;4242928;27;20888;-72
2022/02/14 05:36:23;;;;;;;3.13;1.70;;;4.50;81.00;;;;;;4245871;27;20892;-71
2022/02/14 05:38:25;;;;;;;4.20;2.00;;;4.50;80.10;;;;;;4246760;27;20518;-70
2022/02/14 05:40:29;;;;;;;3.97;2.00;;;4.50;79.50;;;;;;4249179;27;20937;-71
2022/02/14 05:42:30;;;;;;;3.40;1.73;;;4.50;78.60;;;;;;4244201;27;20534;-71
2022/02/14 05:44:32;;;;;;;3.90;1.80;;;4.50;78.40;;;;;;4246364;27;20449;-71
2022/02/14 05:46:34;;;;;;;4.87;2.17;;;4.50;80.10;;;;;;4246158;27;20449;-71
2022/02/14 05:48:36;;;;;;;6.83;2.10;;;4.50;80.00;;;;;;4246551;27;20449;-72
2022/02/14 05:50:37;;;;;;;4.47;1.97;;;4.50;79.90;;;;;;4245728;27;20461;-70
2022/02/14 05:52:40;;;;;;;3.87;1.80;;;4.50;79.20;;;;;;4245080;27;20512;-70
2022/02/14 05:54:42;;;;;;;5.23;2.03;;;4.50;81.20;;;;;;4245411;27;20478;-70
2022/02/14 05:56:45;;;;;;;4.30;1.70;;;4.50;79.80;;;;;;4247193;27;20511;-70
2022/02/14 05:58:46;;;;;;;5.67;1.93;;;4.50;79.80;;;;;;4245446;27;20526;-74
2022/02/14 06:00:48;;;;;;;3.50;2.00;;;4.50;81.70;;;;;;4260351;27;20477;-73
2022/02/14 06:02:50;;;;;;;5.33;1.90;;;4.40;80.90;;;;;;4256105;27;20480;-70
2022/02/14 06:04:51;;;;;;;3.80;1.80;;;4.40;81.20;;;;;;4246373;27;20470;-72
2022/02/14 06:06:53;;;;;;;4.07;1.80;;;4.40;80.80;;;;;;4246525;27;20449;-70
2022/02/14 06:08:55;;;;;;;3.53;1.80;;;4.40;81.50;;;;;;4239495;27;20470;-70
2022/02/14 06:10:57;;;;;;;2.77;1.43;;;4.40;81.70;;;;;;4230850;28;20519;-70
2022/02/14 06:13:00;;;;;;;5.43;1.97;;;4.40;79.00;;;;;;4240787;27;20461;-72
2022/02/14 06:15:02;;;;;;;3.50;2.10;;;4.50;79.30;;;;;;4245813;27;20481;-74
2022/02/14 06:17:04;;;;;;;4.43;2.00;;;4.50;76.70;;;;;;4241172;27;20544;-74
2022/02/14 06:19:06;;;;;;;4.97;2.00;;;4.50;77.40;;;;;;4240550;27;20454;-70
2022/02/14 06:21:07;;;;;;;3.97;1.93;;;4.50;75.60;;;;;;4254766;27;20798;-70
2022/02/14 06:23:09;;;;;;;5.33;2.00;;;4.50;75.80;;;;;;4245390;27;20485;-72
2022/02/14 06:25:11;;;;;;;3.27;1.90;;;4.50;76.40;;;;;;4245325;27;20461;-71
2022/02/14 06:27:13;;;;;;;5.20;1.87;;;4.50;77.80;;;;;;4238354;27;20466;-70
2022/02/14 06:29:16;;;;;;;3.67;1.80;;;4.60;76.30;;;;;;4246364;27;20449;-69
2022/02/14 06:31:18;;;;;;;4.03;1.93;;;4.50;76.70;;;;;;4245091;27;20473;-70
2022/02/14 06:33:19;;;;;;;5.17;2.23;;;4.50;77.90;;;;;;4246485;28;20489;-70
2022/02/14 06:35:22;;;;;;;3.20;1.90;;;4.50;78.30;;;;;;4244130;28;20473;-70
2022/02/14 06:37:24;;;;;;;4.27;2.03;;;4.50;79.20;;;;;;4241375;28;20987;-73
2022/02/14 06:39:25;;;;;;;4.10;1.77;;;4.50;78.80;;;;;;4239794;27;20466;-73
2022/02/14 06:41:28;;;;;;;5.57;2.10;;;4.50;77.80;;;;;;4230049;28;20455;-74
2022/02/14 06:43:29;;;;;;;3.70;2.30;;;4.50;76.10;;;;;;4230410;28;20526;-72
2022/02/14 06:45:32;;;;;;;3.40;1.83;;;4.60;78.00;;;;;;4235609;28;20538;-74
2022/02/14 06:47:34;;;;;;;2.27;1.80;;;4.60;78.50;;;;;;4236781;28;20473;-73
2022/02/14 06:49:36;;;;;;;4.20;2.17;;;4.60;77.10;;;;;;4236822;28;20957;-74
2022/02/14 06:51:39;;;;;;;4.53;1.83;;;4.60;77.30;;;;;;4235464;28;20445;-73
2022/02/14 06:53:41;;;;;;;8.00;2.40;;;4.60;76.30;;;;;;4232891;28;20852;-74
2022/02/14 06:55:43;;;;;;;7.23;2.17;;;4.60;76.60;;;;;;4239171;28;20475;-73
2022/02/14 06:57:44;;;;;;;4.20;1.83;;;4.60;78.10;;;;;;4239753;28;20498;-74
2022/02/14 06:59:46;;;;;;;4.00;1.97;;;4.60;78.70;;;;;;4235040;28;20507;-73
2022/02/14 07:01:49;;;;;;;5.57;2.10;;;4.60;76.90;;;;;;4244396;28;20494;-73
2022/02/14 07:03:51;;;;;;;5.83;1.93;;;4.60;77.10;;;;;;4246584;27;20457;-73
2022/02/14 07:05:53;;;;;;;4.27;1.80;;;4.60;76.20;;;;;;4241550;27;20816;-72
2022/02/14 07:07:54;;;;;;;5.27;2.20;;;4.60;75.70;;;;;;4245548;27;20458;-74
2022/02/14 07:09:56;;;;;;;6.87;1.93;;;4.60;75.80;;;;;;4244826;27;20472;-73
2022/02/14 07:11:58;;;;;;;3.57;1.93;;;4.60;74.60;;;;;;4247211;27;20460;-74
2022/02/14 07:14:00;;;;;;;7.37;1.77;;;4.60;75.20;;;;;;4243957;27;20515;-74
2022/02/14 07:16:01;;;;;;;4.20;2.20;;;4.60;74.30;;;;;;4245324;28;20482;-74
2022/02/14 07:18:10;;;;;;;5.10;1.90;;;4.70;74.90;;;;;;4245992;28;20437;-74
2022/02/14 07:20:12;;;;;;;7.80;2.10;;;4.70;74.40;;;;;;4245791;27;20804;-73
2022/02/14 07:22:14;;;;;;;3.53;1.97;;;4.70;73.90;;;;;;4243873;28;20484;-72
2022/02/14 07:24:16;;;;;;;5.20;1.97;;;4.70;73.00;;;;;;4243259;27;20845;-73
2022/02/14 07:26:18;;;;;;;5.67;2.20;;;4.70;73.30;;;;;;4245123;27;20833;-73
2022/02/14 07:28:20;;;;;;;3.00;2.10;;;4.80;73.00;;;;;;4236823;28;20469;-71
2022/02/14 07:30:22;;;;;;;6.20;1.83;;;4.80;71.40;;;;;;4237948;28;20466;-73
2022/02/14 07:32:23;;;;;;;5.57;1.93;;;4.80;71.00;;;;;;4244241;28;20496;-73
2022/02/14 07:34:27;;;;;;;3.03;1.83;;;4.80;72.10;;;;;;4239196;27;20507;-73
2022/02/14 07:36:28;;;;;;;4.30;1.90;;;4.90;71.70;;;;;;4244374;28;20480;-74
2022/02/14 07:38:30;;;;;;;6.77;2.23;;;4.90;71.10;;;;;;4244850;28;20457;-74
2022/02/14 07:40:32;;;;;;;5.07;2.10;;;4.90;70.80;;;;;;4248002;27;20453;-75
2022/02/14 07:42:34;;;;;;;5.37;2.50;;;4.90;71.50;;;;;;4248623;27;20537;-73
2022/02/14 07:44:36;;;;;;;4.83;2.30;;;4.90;70.50;;;;;;4236311;27;20462;-73
2022/02/14 07:46:37;;;;;;;5.50;2.63;;;4.90;70.20;;;;;;4248802;27;20494;-72
2022/02/14 07:48:41;;;;;;;4.40;1.97;;;4.90;70.40;;;;;;4243896;27;20465;-73
2022/02/14 07:50:44;;;;;;;4.67;2.00;;;5.00;69.30;;;;;;4249571;27;20916;-75
2022/02/14 07:52:46;;;;;;;4.30;2.00;;;5.00;68.90;;;;;;4248846;27;20472;-73
2022/02/14 07:54:48;;;;;;;4.97;2.07;;;5.00;68.80;;;;;;4253931;27;20485;-73
2022/02/14 07:56:50;;;;;;;6.67;2.07;;;5.10;68.50;;;;;;4252032;27;20453;-73
2022/02/14 07:58:52;;;;;;;4.87;2.20;;;5.10;67.70;;;;;;4236234;27;20469;-72
2022/02/14 08:00:54;;;;;;;5.70;2.30;;;5.10;67.60;;;;;;4257871;27;20833;-72
2022/02/14 08:02:55;;;;;;;5.33;2.60;;;5.10;68.30;;;;;;4247768;27;20522;-74
2022/02/14 08:04:57;;;;;;;5.33;2.30;;;5.10;68.00;;;;;;4241738;27;20855;-73
2022/02/14 08:07:02;;;;;;;6.07;2.63;;;5.20;67.70;;;;;;4248468;27;20455;-73
2022/02/14 08:09:04;;;;;;;7.77;2.27;;;5.20;67.10;;;;;;4248675;27;20481;-74
2022/02/14 08:11:06;;;;;;;4.53;1.90;;;5.30;66.80;;;;;;4248515;27;20457;-74
2022/02/14 08:13:08;;;;;;;6.30;2.17;;;5.30;67.40;;;;;;4261709;27;20912;-74
2022/02/14 08:15:10;;;;;;;6.43;2.37;;;5.30;66.00;;;;;;4241344;27;20490;-74
2022/02/14 08:17:12;;;;;;;6.17;2.50;;;5.30;65.10;;;;;;4248684;27;21046;-73
2022/02/14 08:19:13;;;;;;;11.97;2.80;;;5.40;65.40;;;;;;4249094;27;20993;-74
2022/02/14 08:21:15;;;;;;;7.27;2.70;;;5.40;64.60;;;;;;4248859;27;20585;-74
2022/02/14 08:23:18;;;;;;;7.77;3.13;;;5.50;64.50;;;;;;4243929;27;20493;-74
2022/02/14 08:25:20;;;;;;;5.63;2.50;;;5.50;65.00;;;;;;4245114;27;20469;-73
2022/02/14 08:27:24;;;;;;;7.87;2.50;;;5.50;63.80;;;;;;4247883;27;20465;-75
2022/02/14 08:29:26;;;;;;;4.27;2.10;;;5.60;63.70;;;;;;4233658;27;20463;-74
2022/02/14 08:31:29;;;;;;;5.13;2.30;;;5.60;63.40;;;;;;4245785;27;20459;-73
2022/02/14 08:33:31;;;;;;;8.83;2.40;;;5.60;63.60;;;;;;4243834;27;20561;-70
2022/02/14 08:35:33;;;;;;;5.17;2.47;;;5.70;62.30;;;;;;4244503;27;20496;-71
2022/02/14 08:37:34;;;;;;;4.37;2.30;;;5.70;61.90;;;;;;4245673;27;20529;-72
2022/02/14 08:39:37;;;;;;;5.77;2.20;;;5.70;62.20;;;;;;4244040;27;20543;-71
2022/02/14 08:41:40;;;;;;;5.27;2.13;;;5.80;62.30;;;;;;4236553;27;21127;-73
2022/02/14 08:43:42;;;;;;;5.40;2.37;;;5.80;61.60;;;;;;4244222;27;20970;-73
2022/02/14 08:45:44;;;;;;;5.57;2.20;;;5.90;62.00;;;;;;4246611;27;20450;-71
2022/02/14 08:47:46;;;;;;;6.00;2.30;;;5.90;61.70;;;;;;4242054;27;20497;-74
2022/02/14 08:49:47;;;;;;;7.50;2.73;;;5.90;61.90;;;;;;4245302;27;20519;-72
2022/02/14 08:51:49;;;;;;;8.60;2.40;;;5.90;61.90;;;;;;4246082;27;21129;-73
2022/02/14 08:53:53;;;;;;;7.80;2.67;;;6.00;62.30;;;;;;4244088;27;20461;-71
2022/02/14 08:55:56;;;;;;;5.70;2.20;;;6.00;62.00;;;;;;4241617;27;20490;-73
2022/02/14 08:57:57;;;;;;;3.47;1.80;;;6.00;61.70;;;;;;4245535;27;20459;-70
2022/02/14 08:59:59;;;;;;;5.33;2.20;;;6.10;61.40;;;;;;4246118;27;20875;-75
2022/02/14 09:02:02;;;;;;;5.13;2.13;;;6.10;60.20;;;;;;4249353;27;20478;-76
2022/02/14 09:04:03;;;;;;;3.97;2.03;;;6.20;60.10;;;;;;4245402;27;20807;-71
2022/02/14 09:06:05;;;;;;;6.73;2.67;;;6.20;59.70;;;;;;4246771;27;20455;-74
2022/02/14 09:08:07;;;;;;;4.33;2.23;;;6.30;59.40;;;;;;4244636;27;20532;-71
2022/02/14 09:10:10;;;;;;;4.23;2.10;;;6.30;59.40;;;;;;4243120;27;20499;-75
2022/02/14 09:12:13;;;;;;;5.63;2.30;;;6.40;58.40;;;;;;4246100;27;20480;-75
2022/02/14 09:14:15;;;;;;;4.87;2.20;;;6.40;58.90;;;;;;4240645;27;20826;-72
2022/02/14 09:16:18;;;;;;;8.17;3.07;;;6.50;59.00;;;;;;4244568;27;20462;-72
2022/02/14 09:18:19;;;;;;;8.83;3.57;;;6.60;58.60;;;;;;4243398;27;20467;-72
2022/02/14 09:20:23;;;;;;;9.03;2.90;;;6.60;57.80;;;;;;4245332;27;20460;-71
2022/02/14 09:22:24;;;;;;;7.20;3.30;;;6.70;58.30;;;;;;4241250;27;20508;-74
2022/02/14 09:24:30;;;;;;;9.33;3.50;;;6.70;57.70;;;;;;4244199;27;20447;-71
2022/02/14 09:26:32;;;;;;;7.47;3.60;;;6.80;57.90;;;;;;4241527;27;20463;-74
2022/02/14 09:28:35;;;;;;;7.20;3.03;;;6.80;58.10;;;;;;4246991;27;20552;-76
2022/02/14 09:30:37;;;;;;;13.33;4.30;;;6.80;57.70;;;;;;4242149;27;20961;-72
2022/02/14 09:32:39;;;;;;;13.00;3.07;;;6.90;57.10;;;;;;4245859;27;20475;-73
2022/02/14 09:34:43;;;;;;;16.27;3.70;;;7.00;56.40;;;;;;4243665;27;20499;-73
2022/02/14 09:36:48;;;;;;;8.63;3.20;;;7.00;56.10;;;;;;4242978;27;20458;-72
2022/02/14 09:38:49;;;;;;;6.90;2.57;;;7.10;56.10;;;;;;4242356;27;20473;-71
2022/02/14 09:40:51;;;;;;;5.27;2.53;;;7.20;56.00;;;;;;4246000;27;20459;-73
2022/02/14 09:42:54;;;;;;;5.13;2.20;;;7.20;55.50;;;;;;4243891;27;20475;-76
2022/02/14 09:44:57;;;;;;;6.20;2.80;;;7.30;55.80;;;;;;4241033;27;20532;-72
2022/02/14 09:46:59;;;;;;;4.00;2.20;;;7.40;55.00;;;;;;4245665;27;21029;-76
2022/02/14 09:49:04;;;;;;;7.00;2.73;;;7.40;54.50;;;;;;4243025;27;20469;-71
2022/02/14 09:51:06;;;;;;;23.10;5.67;;;7.50;54.70;;;;;;4244394;27;21049;-71
2022/02/14 09:53:10;;;;;;;11.87;4.20;;;7.50;54.50;;;;;;4246585;27;20512;-73
2022/02/14 09:55:12;;;;;;;7.23;2.47;;;7.60;54.50;;;;;;4242415;27;20584;-76
2022/02/14 09:57:18;;;;;;;4.70;2.40;;;7.60;54.50;;;;;;4245319;27;20465;-72
2022/02/14 09:59:19;;;;;;;2.87;1.83;;;7.60;54.80;;;;;;4245464;27;20467;-74
2022/02/14 10:01:27;;;;;;;6.43;3.03;;;8.00;54.80;;;;;;4244188;27;20849;-73
2022/02/14 10:03:28;;;;;;;7.70;2.40;;;7.80;54.20;;;;;;4244296;27;20539;-71
2022/02/14 10:05:31;;;;;;;5.63;2.10;;;7.90;54.60;;;;;;4244107;27;20492;-73
2022/02/14 10:07:45;;;;;;;5.13;2.27;;;7.90;54.50;;;;;;4246590;27;20555;-72
2022/02/14 10:09:47;;;;;;;5.83;2.03;;;8.10;54.00;;;;;;4245190;27;20456;-74
2022/02/14 10:11:59;;;;;;;3.83;2.17;;;8.10;53.20;;;;;;4243897;27;20472;-74
2022/02/14 10:14:14;;;;;;;2.93;1.80;;;8.20;53.30;;;;;;4242567;27;20453;-74
2022/02/14 10:16:16;;;;;;;5.23;2.30;;;8.30;53.60;;;;;;4244848;27;20500;-76
2022/02/14 10:18:31;;;;;;;4.63;2.30;;;8.30;53.30;;;;;;4243634;27;20949;-74
2022/02/14 10:20:33;;;;;;;4.60;2.30;;;8.30;53.20;;;;;;4246687;27;20449;-75
2022/02/14 10:22:51;;;;;;;4.07;2.30;;;8.40;52.80;;;;;;4244950;27;20499;-74
2022/02/14 10:24:54;;;;;;;8.73;2.40;;;8.50;52.80;;;;;;4245123;27;20495;-73
2022/02/14 10:26:56;;;;;;;6.00;2.17;;;8.50;53.10;;;;;;4244982;27;20510;-75
2022/02/14 10:28:58;;;;;;;5.47;2.50;;;8.50;53.00;;;;;;4244504;27;20456;-76
2022/02/14 10:31:02;;;;;;;5.07;1.80;;;8.60;52.90;;;;;;4244452;27;20954;-75
2022/02/14 10:33:05;;;;;;;4.23;2.07;;;8.60;52.80;;;;;;4243070;27;20277;-74
2022/02/14 10:35:12;;;;;;;3.73;2.10;;;8.70;53.10;;;;;;4245670;27;20542;-71
2022/02/14 10:37:16;;;;;;;5.40;2.30;;;8.70;52.90;;;;;;4247118;27;20947;-71
2022/02/14 10:39:21;;;;;;;4.67;1.90;;;8.80;53.20;;;;;;4240994;27;20275;-72
2022/02/14 10:41:23;;;;;;;5.27;2.10;;;8.80;53.50;;;;;;4244506;27;20820;-72
2022/02/14 10:43:26;;;;;;;6.17;2.73;;;8.80;52.80;;;;;;4245077;27;21088;-74
2022/02/14 10:45:28;;;;;;;7.30;2.60;;;8.90;52.90;;;;;;4245808;27;20245;-71
2022/02/14 10:47:31;;;;;;;5.93;2.57;;;8.90;53.20;;;;;;4245377;27;20212;-72